createdAt,value
2023-01-15T00:00:33.515Z,3.35
2023-01-15T00:03:00.369Z,3.17
2023-01-15T00:05:27.786Z,2.67
2023-01-15T00:07:54.531Z,2.88
2023-01-15T00:10:22.123Z,0.80
2023-01-15T00:12:49.184Z,2.10
2023-01-15T00:15:16.486Z,0.50
2023-01-15T00:17:43.782Z,0.30
2023-01-15T00:20:12.919Z,0.77
2023-01-15T00:22:39.759Z,0.77
2023-01-15T00:25:26.840Z,0.50
2023-01-15T00:27:55.017Z,0.77
2023-01-15T00:30:21.856Z,0.30
2023-01-15T00:32:49.640Z,0.65
2023-01-15T00:35:19.229Z,0.40
2023-01-15T00:37:46.212Z,0.50
2023-01-15T00:40:15.444Z,0.30
2023-01-15T00:42:43.245Z,1.58
2023-01-15T00:45:19.491Z,0.30
2023-01-15T00:47:49.516Z,0.25
2023-01-15T00:50:16.348Z,0.20
2023-01-15T00:52:43.335Z,0.22
2023-01-15T00:55:16.462Z,0.28
2023-01-15T00:57:48.781Z,1.35
2023-01-15T01:00:15.781Z,0.38
2023-01-15T01:02:42.710Z,0.28
2023-01-15T01:05:10.001Z,0.22
2023-01-15T01:07:36.902Z,0.10
2023-01-15T01:10:04.324Z,0.20
2023-01-15T01:12:31.801Z,0.38
2023-01-15T01:14:58.505Z,0.40
2023-01-15T01:17:28.564Z,0.38
2023-01-15T01:19:55.369Z,0.60
2023-01-15T01:22:22.035Z,0.30
2023-01-15T01:24:48.947Z,0.08
2023-01-15T01:27:18.961Z,0.20
2023-01-15T01:29:46.223Z,0.22
2023-01-15T01:32:13.961Z,0.20
2023-01-15T01:34:40.751Z,1.48
2023-01-15T01:37:07.671Z,0.22
2023-01-15T01:39:34.307Z,1.70
2023-01-15T01:42:01.354Z,0.38
2023-01-15T01:45:01.700Z,0.22
2023-01-15T01:47:32.509Z,0.17
2023-01-15T01:50:04.904Z,0.10
2023-01-15T01:52:51.806Z,0.10
2023-01-15T01:55:21.007Z,0.20
2023-01-15T01:57:48.594Z,0.52
2023-01-15T02:02:57.443Z,0.17
2023-01-15T02:05:31.870Z,0.20
2023-01-15T02:07:58.923Z,0.10
2023-01-15T02:10:25.718Z,0.20
2023-01-15T02:13:01.533Z,0.20
2023-01-15T02:15:41.085Z,0.40
2023-01-15T02:18:24.432Z,0.20
2023-01-15T02:21:02.284Z,0.13
2023-01-15T02:23:53.990Z,0.35
2023-01-15T02:27:03.629Z,0.60
2023-01-15T02:29:45.870Z,1.10
2023-01-15T02:32:52.559Z,0.20
2023-01-15T02:35:23.298Z,0.10
2023-01-15T02:37:52.475Z,0.20
2023-01-15T02:40:21.727Z,0.20
2023-01-15T02:42:49.886Z,0.10
2023-01-15T02:45:24.397Z,0.32
2023-01-15T02:47:53.288Z,0.35
2023-01-15T02:50:25.329Z,0.10
2023-01-15T02:52:58.297Z,0.50
2023-01-15T02:55:29.016Z,0.45
2023-01-15T02:57:59.440Z,0.45
2023-01-15T03:00:26.918Z,0.20
2023-01-15T03:03:02.700Z,0.30
2023-01-15T03:05:35.801Z,0.20
2023-01-15T03:08:04.059Z,0.43
2023-01-15T03:10:38.830Z,0.30
2023-01-15T03:13:06.469Z,0.22
2023-01-15T03:16:15.032Z,0.85
2023-01-15T03:18:50.511Z,0.10
2023-01-15T03:21:21.585Z,0.10
2023-01-15T03:23:51.987Z,0.20
2023-01-15T03:26:18.991Z,0.32
2023-01-15T03:28:47.128Z,0.10
2023-01-15T03:31:15.290Z,0.08
2023-01-15T03:33:42.884Z,0.10
2023-01-15T03:36:11.031Z,0.52
2023-01-15T03:38:39.643Z,0.85
2023-01-15T03:41:20.865Z,0.00
2023-01-15T03:44:18.447Z,1.98
2023-01-15T03:46:59.894Z,0.05
2023-01-15T03:50:06.047Z,0.00
2023-01-15T03:52:57.277Z,0.00
2023-01-15T03:55:29.806Z,0.00
2023-01-15T03:58:00.747Z,0.00
2023-01-15T04:00:30.938Z,0.10
2023-01-15T04:02:59.204Z,0.10
2023-01-15T04:05:26.616Z,0.10
2023-01-15T04:07:54.611Z,0.10
2023-01-15T04:10:21.616Z,0.20
2023-01-15T04:12:49.531Z,0.30
2023-01-15T04:15:17.405Z,0.00
2023-01-15T04:17:44.437Z,0.20
2023-01-15T04:20:12.300Z,0.10
2023-01-15T04:22:40.428Z,0.40
2023-01-15T04:25:08.136Z,0.00
2023-01-15T04:27:35.191Z,1.20
2023-01-15T04:30:02.333Z,0.10
2023-01-15T04:32:29.103Z,0.00
2023-01-15T04:34:55.995Z,0.10
2023-01-15T04:37:22.764Z,0.10
2023-01-15T04:39:49.442Z,0.00
2023-01-15T04:42:34.915Z,0.00
2023-01-15T04:45:01.736Z,1.65
2023-01-15T04:47:31.180Z,0.10
2023-01-15T04:49:58.168Z,0.10
2023-01-15T04:52:25.760Z,0.20
2023-01-15T04:54:55.013Z,0.38
2023-01-15T04:57:21.757Z,0.00
2023-01-15T04:59:48.637Z,1.23
2023-01-15T05:02:16.067Z,0.15
2023-01-15T05:04:43.353Z,1.52
2023-01-15T05:07:10.868Z,0.30
2023-01-15T05:09:37.703Z,0.03
2023-01-15T05:12:04.831Z,0.22
2023-01-15T05:14:31.863Z,0.50
2023-01-15T05:16:59.189Z,0.90
2023-01-15T05:19:26.537Z,0.50
2023-01-15T05:21:53.243Z,1.02
2023-01-15T05:24:21.154Z,0.68
2023-01-15T05:26:48.540Z,1.85
2023-01-15T05:29:15.713Z,0.20
2023-01-15T05:31:45.481Z,0.30
2023-01-15T05:34:12.769Z,0.98
2023-01-15T05:36:39.756Z,0.28
2023-01-15T05:39:06.700Z,0.85
2023-01-15T05:41:49.248Z,0.20
2023-01-15T05:44:27.561Z,1.60
2023-01-15T05:46:57.607Z,0.20
2023-01-15T05:49:26.415Z,0.20
2023-01-15T05:51:55.429Z,0.38
2023-01-15T05:54:25.955Z,0.43
2023-01-15T05:56:53.567Z,0.13
2023-01-15T05:59:23.783Z,1.60
2023-01-15T06:01:50.897Z,1.33
2023-01-15T06:04:21.284Z,0.85
2023-01-15T06:06:51.721Z,1.48
2023-01-15T06:09:19.633Z,1.65
2023-01-15T06:11:47.369Z,1.23
2023-01-15T06:14:15.865Z,3.25
2023-01-15T06:16:44.744Z,1.00
2023-01-15T06:19:13.612Z,1.55
2023-01-15T06:21:41.440Z,1.10
2023-01-15T06:24:08.837Z,1.55
2023-01-15T06:26:36.051Z,1.00
2023-01-15T06:29:03.100Z,0.70
2023-01-15T06:31:30.466Z,0.90
2023-01-15T06:33:58.272Z,0.30
2023-01-15T06:36:26.799Z,0.77
2023-01-15T06:38:53.768Z,0.20
2023-01-15T06:41:42.136Z,0.73
2023-01-15T06:44:33.230Z,1.75
2023-01-15T06:47:22.276Z,0.13
2023-01-15T06:49:55.297Z,0.30
2023-01-15T06:52:26.021Z,2.22
2023-01-15T06:54:53.486Z,0.63
2023-01-15T06:57:21.252Z,1.10
2023-01-15T06:59:49.385Z,0.70
2023-01-15T07:02:18.445Z,0.55
2023-01-15T07:04:46.084Z,0.40
2023-01-15T07:07:14.232Z,0.82
2023-01-15T07:09:40.946Z,0.80
2023-01-15T07:12:08.816Z,2.90
2023-01-15T07:14:35.707Z,0.50
2023-01-15T07:17:02.965Z,4.25
2023-01-15T07:19:29.896Z,2.45
2023-01-15T07:21:56.542Z,0.95
2023-01-15T07:24:23.716Z,1.67
2023-01-15T07:26:51.020Z,1.88
2023-01-15T07:29:18.448Z,3.42
2023-01-15T07:31:45.898Z,0.60
2023-01-15T07:34:12.608Z,1.17
2023-01-15T07:36:39.831Z,0.90
2023-01-15T07:39:09.616Z,0.38
2023-01-15T07:41:54.954Z,1.33
2023-01-15T07:44:41.075Z,0.88
2023-01-15T07:47:37.693Z,1.15
2023-01-15T07:50:08.426Z,0.80
2023-01-15T07:52:35.342Z,0.60
2023-01-15T07:55:02.329Z,1.45
2023-01-15T07:57:29.286Z,0.70
2023-01-15T07:59:56.948Z,0.95
2023-01-15T08:02:23.623Z,1.75
2023-01-15T08:04:50.395Z,0.60
2023-01-15T08:07:18.651Z,1.67
2023-01-15T08:09:46.075Z,0.82
2023-01-15T08:12:32.572Z,1.48
2023-01-15T08:15:14.971Z,6.50
2023-01-15T08:17:43.287Z,1.33
2023-01-15T08:20:14.245Z,2.25
2023-01-15T08:22:41.327Z,3.75
2023-01-15T08:25:09.899Z,1.60
2023-01-15T08:27:39.931Z,1.83
2023-01-15T08:30:10.959Z,3.78
2023-01-15T08:32:40.416Z,2.85
2023-01-15T08:35:10.143Z,0.90
2023-01-15T08:37:40.199Z,4.05
2023-01-15T08:40:10.322Z,0.75
2023-01-15T08:42:39.413Z,2.15
2023-01-15T08:45:08.801Z,1.60
2023-01-15T08:47:37.872Z,1.08
2023-01-15T08:50:09.883Z,0.77
2023-01-15T08:52:38.935Z,0.90
2023-01-15T08:55:08.576Z,3.63
2023-01-15T08:57:37.192Z,2.45
2023-01-15T09:00:05.512Z,1.48
2023-01-15T09:02:32.338Z,2.85
2023-01-15T09:04:59.627Z,4.13
2023-01-15T09:07:27.319Z,3.20
2023-01-15T09:09:54.736Z,6.22
2023-01-15T09:12:24.930Z,2.08
2023-01-15T09:14:58.865Z,3.58
2023-01-15T09:17:29.733Z,3.97
2023-01-15T09:19:56.444Z,2.45
2023-01-15T09:22:23.217Z,2.08
2023-01-15T09:24:51.497Z,1.63
2023-01-15T09:27:18.963Z,1.27
2023-01-15T09:29:46.306Z,1.15
2023-01-15T09:32:13.102Z,1.92
2023-01-15T09:34:39.915Z,1.17
2023-01-15T09:37:07.109Z,1.10
2023-01-15T09:39:34.821Z,1.70
2023-01-15T09:42:32.270Z,1.42
2023-01-15T09:45:37.715Z,2.90
2023-01-15T09:48:18.040Z,3.30
2023-01-15T09:51:17.745Z,4.80
2023-01-15T09:54:11.922Z,2.30
2023-01-15T09:56:38.817Z,2.42
2023-01-15T09:59:29.530Z,3.47
2023-01-15T10:01:56.443Z,2.80
2023-01-15T10:04:34.727Z,2.10
2023-01-15T10:07:12.854Z,1.10
2023-01-15T10:09:40.951Z,2.50
2023-01-15T10:12:34.894Z,2.10
2023-01-15T10:15:14.478Z,2.80
2023-01-15T10:17:48.614Z,2.92
2023-01-15T10:20:43.091Z,1.50
2023-01-15T10:23:36.451Z,1.52
2023-01-15T10:26:26.776Z,2.25
2023-01-15T10:29:36.806Z,1.05
2023-01-15T10:32:27.067Z,2.05
2023-01-15T10:35:09.620Z,0.73
2023-01-15T10:37:52.489Z,1.83
2023-01-15T10:40:58.693Z,2.20
2023-01-15T10:43:42.510Z,0.95
2023-01-15T10:46:15.942Z,3.88
2023-01-15T10:49:02.642Z,5.07
2023-01-15T10:51:45.031Z,4.05
2023-01-15T10:54:33.622Z,3.53
2023-01-15T10:57:11.962Z,4.57
2023-01-15T10:59:49.168Z,1.88
2023-01-15T11:02:45.946Z,2.85
2023-01-15T11:05:20.244Z,1.75
2023-01-15T11:08:15.310Z,2.50
2023-01-15T11:10:41.222Z,1.75
2023-01-15T11:13:44.803Z,1.17
2023-01-15T11:19:38.960Z,2.15
2023-01-15T11:22:20.111Z,0.98
2023-01-15T11:24:53.316Z,1.00
2023-01-15T11:27:27.868Z,3.23
2023-01-15T11:29:59.580Z,4.22
2023-01-15T11:32:39.261Z,1.50
2023-01-15T11:35:09.667Z,1.25
2023-01-15T11:37:36.682Z,0.90
2023-01-15T11:40:08.844Z,1.30
2023-01-15T11:43:11.883Z,0.88
2023-01-15T11:46:25.286Z,0.57
2023-01-15T11:49:10.857Z,1.13
2023-01-15T11:51:48.061Z,2.78
2023-01-15T11:54:19.922Z,1.63
2023-01-15T11:56:46.667Z,1.40
2023-01-15T11:59:18.035Z,1.30
2023-01-15T12:01:58.281Z,1.98
2023-01-15T12:05:00.461Z,1.88
2023-01-15T12:07:29.760Z,2.38
2023-01-15T12:10:42.371Z,1.48
2023-01-15T12:13:26.008Z,2.80
2023-01-15T12:22:35.817Z,1.02
2023-01-15T12:25:40.948Z,1.27
2023-01-15T12:28:18.999Z,0.88
2023-01-15T12:30:58.919Z,2.65
2023-01-15T12:36:52.118Z,1.50
2023-01-15T12:39:27.045Z,4.55
2023-01-15T12:42:16.013Z,2.15
2023-01-15T12:45:22.776Z,3.95
2023-01-15T12:47:57.263Z,3.45
2023-01-15T12:50:55.833Z,1.55
2023-01-15T12:53:38.217Z,2.72
2023-01-15T12:56:23.048Z,2.95
2023-01-15T12:59:03.261Z,4.03
2023-01-15T13:02:09.768Z,2.80
2023-01-15T13:05:06.968Z,2.83
2023-01-15T13:07:42.978Z,3.03
2023-01-15T13:10:23.630Z,2.05
2023-01-15T13:12:52.147Z,2.90
2023-01-15T13:15:20.797Z,1.77
2023-01-15T13:18:22.865Z,4.22
2023-01-15T13:20:51.635Z,0.60
2023-01-15T13:24:02.567Z,2.45
2023-01-15T13:27:13.678Z,2.20
2023-01-15T13:30:20.181Z,4.15
2023-01-15T13:32:50.773Z,1.58
2023-01-15T13:35:29.324Z,1.95
2023-01-15T13:37:58.895Z,1.90
2023-01-15T13:40:50.625Z,3.72
2023-01-15T13:43:42.008Z,3.35
2023-01-15T13:46:13.946Z,3.22
2023-01-15T13:48:45.403Z,3.72
2023-01-15T13:51:30.475Z,4.05
2023-01-15T13:53:58.398Z,2.58
2023-01-15T13:56:34.200Z,1.80
2023-01-15T13:59:03.442Z,3.05
2023-01-15T14:01:35.418Z,6.93
2023-01-15T14:04:18.316Z,3.80
2023-01-15T14:06:54.679Z,6.30
2023-01-15T14:09:30.186Z,2.22
2023-01-15T14:12:18.325Z,5.13
2023-01-15T14:15:31.895Z,3.85
2023-01-15T14:18:36.801Z,3.58
2023-01-15T14:21:18.360Z,2.17
2023-01-15T14:24:11.867Z,2.00
2023-01-15T14:27:03.774Z,7.40
2023-01-15T14:30:12.896Z,6.22
2023-01-15T14:33:08.970Z,7.50
2023-01-15T14:35:37.957Z,6.20
2023-01-15T14:38:07.388Z,2.78
2023-01-15T14:40:35.747Z,6.82
2023-01-15T14:43:10.665Z,7.20
2023-01-15T14:45:40.148Z,7.43
2023-01-15T14:48:42.530Z,3.90
2023-01-15T14:51:25.964Z,3.70
2023-01-15T14:53:58.513Z,3.30
2023-01-15T14:56:40.895Z,5.13
2023-01-15T14:59:26.025Z,4.57
2023-01-15T15:01:56.449Z,2.50
2023-01-15T15:04:35.478Z,2.40
2023-01-15T15:07:12.793Z,2.35
2023-01-15T15:09:45.819Z,3.75
2023-01-15T15:13:03.113Z,1.80
2023-01-15T15:15:50.272Z,4.38
2023-01-15T15:18:41.932Z,3.30
2023-01-15T15:21:19.479Z,3.97
2023-01-15T15:24:12.757Z,5.00
2023-01-15T15:26:39.979Z,3.58
2023-01-15T15:29:13.770Z,2.85
2023-01-15T15:31:48.799Z,5.93
2023-01-15T15:34:21.897Z,4.65
2023-01-15T15:36:48.764Z,2.17
2023-01-15T15:39:21.326Z,5.57
2023-01-15T15:42:08.162Z,5.85
2023-01-15T15:45:08.478Z,6.32
2023-01-15T15:47:57.920Z,2.30
2023-01-15T15:50:29.351Z,4.80
2023-01-15T15:52:58.339Z,2.55
2023-01-15T15:55:31.345Z,2.17
2023-01-15T15:58:01.253Z,3.30
2023-01-15T16:00:34.757Z,4.15
2023-01-15T16:03:05.788Z,3.80
2023-01-15T16:05:32.717Z,5.68
2023-01-15T16:08:17.767Z,4.47
2023-01-15T16:10:46.827Z,3.05
2023-01-15T16:13:22.362Z,3.90
2023-01-15T16:15:51.269Z,2.67
2023-01-15T16:18:26.680Z,2.65
2023-01-15T16:20:53.758Z,1.45
2023-01-15T16:23:26.264Z,4.25
2023-01-15T16:26:14.940Z,3.45
2023-01-15T16:28:45.748Z,2.78
2023-01-15T16:31:13.059Z,5.40
2023-01-15T16:33:40.490Z,7.28
2023-01-15T16:36:08.354Z,3.95
2023-01-15T16:38:47.945Z,5.28
2023-01-15T16:41:32.985Z,4.28
2023-01-15T16:44:02.998Z,5.30
2023-01-15T16:46:39.880Z,3.30
2023-01-15T16:49:21.912Z,6.80
2023-01-15T16:51:53.667Z,5.03
2023-01-15T16:54:49.931Z,5.82
2023-01-15T16:57:33.179Z,5.30
2023-01-15T17:00:05.582Z,5.55
2023-01-15T17:02:45.289Z,7.90
2023-01-15T17:05:19.678Z,9.52
2023-01-15T17:07:48.020Z,2.80
2023-01-15T17:10:21.377Z,3.95
2023-01-15T17:12:48.099Z,6.87
2023-01-15T17:15:33.231Z,5.72
2023-01-15T17:18:19.603Z,4.45
2023-01-15T17:20:46.661Z,6.65
2023-01-15T17:23:13.808Z,3.10
2023-01-15T17:25:40.867Z,5.50
2023-01-15T17:28:12.902Z,5.47
2023-01-15T17:30:41.270Z,3.00
2023-01-15T17:33:11.819Z,4.80
2023-01-15T17:35:41.408Z,8.05
2023-01-15T17:38:13.461Z,5.35
2023-01-15T17:40:41.728Z,5.60
2023-01-15T17:43:15.077Z,4.43
2023-01-15T17:45:43.224Z,2.40
2023-01-15T17:48:10.609Z,5.10
2023-01-15T17:50:38.066Z,4.32
2023-01-15T17:53:05.592Z,4.32
2023-01-15T17:55:51.598Z,3.20
2023-01-15T17:58:37.208Z,3.40
2023-01-15T18:01:34.350Z,3.33
2023-01-15T18:04:20.366Z,3.85
2023-01-15T18:06:52.110Z,5.30
2023-01-15T18:09:25.662Z,3.20
2023-01-15T18:11:52.371Z,5.07
2023-01-15T18:14:19.275Z,5.07
2023-01-15T18:16:50.614Z,6.10
2023-01-15T18:19:18.377Z,6.47
2023-01-15T18:21:45.258Z,5.50
2023-01-15T18:24:17.710Z,5.38
2023-01-15T18:26:45.346Z,2.90
2023-01-15T18:29:12.161Z,3.10
2023-01-15T18:31:39.426Z,2.47
2023-01-15T18:34:06.686Z,2.63
2023-01-15T18:36:35.342Z,3.78
2023-01-15T18:39:06.065Z,5.22
2023-01-15T18:41:58.231Z,3.70
2023-01-15T18:44:49.066Z,5.90
2023-01-15T18:47:18.120Z,5.35
2023-01-15T18:49:46.098Z,4.25
2023-01-15T18:52:37.233Z,3.83
2023-01-15T18:55:04.226Z,5.88
2023-01-15T18:57:32.930Z,4.70
2023-01-15T18:59:59.659Z,3.78
2023-01-15T19:02:27.129Z,5.93
2023-01-15T19:04:55.030Z,7.82
2023-01-15T19:07:22.115Z,15.25
2023-01-15T19:09:52.878Z,10.25
2023-01-15T19:12:20.286Z,5.05
2023-01-15T19:15:26.515Z,6.80
2023-01-15T19:18:12.055Z,2.88
2023-01-15T19:20:42.978Z,2.78
2023-01-15T19:23:09.698Z,5.43
2023-01-15T19:25:44.674Z,5.13
2023-01-15T19:28:17.797Z,4.47
2023-01-15T19:31:05.575Z,6.03
2023-01-15T19:33:33.209Z,5.68
2023-01-15T19:36:00.266Z,4.35
2023-01-15T19:38:27.162Z,7.22
2023-01-15T19:41:14.909Z,8.60
2023-01-15T19:44:00.303Z,4.35
2023-01-15T19:46:46.020Z,4.20
2023-01-15T19:49:40.452Z,4.55
2023-01-15T19:52:27.505Z,6.30
2023-01-15T19:54:56.961Z,6.82
2023-01-15T19:57:23.978Z,3.20
2023-01-15T19:59:51.101Z,4.68
2023-01-15T20:02:19.382Z,3.05
2023-01-15T20:04:46.999Z,3.67
2023-01-15T20:07:14.994Z,4.70
2023-01-15T20:09:42.594Z,2.72
2023-01-15T20:12:31.668Z,2.63
2023-01-15T20:14:59.304Z,4.35
2023-01-15T20:17:28.773Z,2.67
2023-01-15T20:19:55.649Z,4.15
2023-01-15T20:22:25.115Z,2.90
2023-01-15T20:24:52.794Z,3.17
2023-01-15T20:27:20.201Z,1.70
2023-01-15T20:29:57.163Z,3.40
2023-01-15T20:32:24.123Z,1.40
2023-01-15T20:34:50.991Z,2.05
2023-01-15T20:37:18.781Z,3.30
2023-01-15T20:39:45.523Z,2.75
2023-01-15T20:42:31.189Z,4.55
2023-01-15T20:44:58.131Z,2.80
2023-01-15T20:47:45.579Z,3.67
2023-01-15T20:50:15.869Z,3.40
2023-01-15T20:52:47.671Z,4.78
2023-01-15T20:55:15.368Z,3.22
2023-01-15T20:57:43.114Z,4.15
2023-01-15T21:00:20.778Z,4.10
2023-01-15T21:02:47.716Z,6.22
2023-01-15T21:05:14.923Z,3.92
2023-01-15T21:07:42.831Z,4.78
2023-01-15T21:10:12.775Z,2.63
2023-01-15T21:12:39.722Z,4.97
2023-01-15T21:15:07.064Z,2.63
2023-01-15T21:17:34.116Z,4.00
2023-01-15T21:20:01.072Z,3.03
2023-01-15T21:22:30.881Z,4.45
2023-01-15T21:24:58.735Z,4.20
2023-01-15T21:27:26.659Z,5.40
2023-01-15T21:29:54.065Z,6.68
2023-01-15T21:32:21.098Z,5.95
2023-01-15T21:34:47.860Z,4.68
2023-01-15T21:37:15.953Z,3.78
2023-01-15T21:39:43.324Z,4.60
2023-01-15T21:42:38.043Z,5.10
2023-01-15T21:45:06.366Z,3.35
2023-01-15T21:47:34.422Z,4.25
2023-01-15T21:50:03.664Z,4.70
2023-01-15T21:52:30.983Z,5.38
2023-01-15T21:54:58.207Z,2.88
2023-01-15T21:57:25.009Z,3.60
2023-01-15T21:59:51.756Z,3.95
2023-01-15T22:02:22.069Z,4.15
2023-01-15T22:04:49.623Z,4.97
2023-01-15T22:07:18.133Z,4.80
2023-01-15T22:09:45.288Z,4.72
2023-01-15T22:12:13.605Z,3.22
2023-01-15T22:14:40.222Z,2.50
2023-01-15T22:17:08.409Z,6.93
2023-01-15T22:19:35.238Z,6.30
2023-01-15T22:22:07.985Z,4.70
2023-01-15T22:24:36.729Z,3.20
2023-01-15T22:27:06.802Z,3.67
2023-01-15T22:29:38.881Z,4.40
2023-01-15T22:32:07.214Z,7.40
2023-01-15T22:34:34.568Z,3.65
2023-01-15T22:37:01.578Z,3.92
2023-01-15T22:39:28.935Z,6.45
2023-01-15T22:42:34.579Z,3.47
2023-01-15T22:45:03.772Z,3.67
2023-01-15T22:47:30.690Z,3.10
2023-01-15T22:49:58.070Z,3.88
2023-01-15T22:52:26.511Z,5.00
2023-01-15T22:54:53.700Z,4.63
2023-01-15T22:57:20.564Z,5.88
2023-01-15T22:59:47.325Z,6.88
2023-01-15T23:02:14.596Z,8.32
2023-01-15T23:04:41.539Z,4.22
2023-01-15T23:07:09.960Z,3.85
2023-01-15T23:09:36.756Z,4.85
2023-01-15T23:12:03.693Z,4.25
2023-01-15T23:14:31.805Z,2.60
2023-01-15T23:16:58.665Z,8.20
2023-01-15T23:19:28.600Z,5.03
2023-01-15T23:21:55.966Z,3.38
2023-01-15T23:24:23.136Z,3.65
2023-01-15T23:26:49.894Z,2.72
2023-01-15T23:29:17.978Z,3.17
2023-01-15T23:31:44.689Z,5.88
2023-01-15T23:34:13.035Z,4.95
2023-01-15T23:36:40.252Z,4.85
2023-01-15T23:39:07.003Z,4.50
2023-01-15T23:41:53.126Z,7.55
2023-01-15T23:44:39.596Z,3.30
2023-01-15T23:47:07.667Z,2.97
2023-01-15T23:49:35.864Z,2.55
2023-01-15T23:52:03.233Z,3.50
2023-01-15T23:54:31.815Z,4.00
2023-01-15T23:57:00.398Z,3.70
2023-01-15T23:59:27.769Z,3.42
